createdAt,value
2019-05-03T08:27:14.850Z,2.10
2019-05-03T08:29:45.394Z,1.63
2019-05-03T08:32:29.817Z,1.40
2019-05-03T08:35:18.236Z,1.80
2019-05-03T08:37:49.789Z,1.70
2019-05-03T08:40:19.562Z,1.50
2019-05-03T08:42:48.405Z,1.60
2019-05-03T08:45:17.228Z,1.63
2019-05-03T08:47:46.293Z,1.33
2019-05-03T08:50:21.177Z,1.23
2019-05-03T08:52:45.947Z,1.60
2019-05-03T08:55:15.864Z,1.27
2019-05-03T08:57:45.241Z,1.50
2019-05-03T09:00:16.331Z,1.20
2019-05-03T09:02:45.132Z,1.50
2019-05-03T09:05:15.760Z,1.40
2019-05-03T09:07:44.791Z,1.63
2019-05-03T09:10:24.962Z,1.73
2019-05-03T09:13:07.414Z,1.20
2019-05-03T09:15:36.502Z,1.40
2019-05-03T09:18:05.480Z,1.20
2019-05-03T09:20:35.596Z,2.20
2019-05-03T09:23:05.473Z,2.20
2019-05-03T09:25:35.565Z,1.10
2019-05-03T09:28:04.930Z,1.40
2019-05-03T09:30:35.686Z,1.33
2019-05-03T09:33:07.132Z,1.40
2019-05-03T09:35:36.120Z,1.33
2019-05-03T09:38:05.749Z,1.17
2019-05-03T09:40:35.353Z,1.37
2019-05-03T09:43:04.538Z,1.13
2019-05-03T09:45:35.310Z,1.50
2019-05-03T09:48:05.727Z,1.40
2019-05-03T09:50:35.927Z,1.50
2019-05-03T09:53:05.601Z,1.17
2019-05-03T09:55:37.732Z,1.20
2019-05-03T09:58:06.794Z,1.27
2019-05-03T10:00:35.736Z,1.30
2019-05-03T10:03:05.640Z,1.20
2019-05-03T10:05:35.218Z,1.40
2019-05-03T10:08:05.090Z,1.37
2019-05-03T10:10:52.054Z,1.33
2019-05-03T10:13:23.587Z,1.33
2019-05-03T10:15:51.449Z,1.17
2019-05-03T10:18:20.326Z,1.17
2019-05-03T10:20:49.210Z,1.07
2019-05-03T10:23:37.189Z,1.40
2019-05-03T10:26:06.207Z,1.60
2019-05-03T10:28:35.126Z,1.20
2019-05-03T10:31:07.508Z,1.17
2019-05-03T10:33:48.020Z,1.80
2019-05-03T10:36:16.835Z,1.43
2019-05-03T10:38:46.263Z,1.07
2019-05-03T10:41:15.225Z,1.00
2019-05-03T10:43:45.182Z,1.20
2019-05-03T10:46:15.941Z,1.10
2019-05-03T10:48:45.375Z,1.03
2019-05-03T10:51:15.670Z,1.63
2019-05-03T10:53:47.197Z,0.90
2019-05-03T10:56:22.754Z,1.17
2019-05-03T10:59:08.019Z,1.10
2019-05-03T11:01:47.561Z,1.10
2019-05-03T11:04:16.393Z,0.87
2019-05-03T11:06:45.804Z,1.00
2019-05-03T11:09:15.246Z,0.80
2019-05-03T11:11:45.278Z,1.10
2019-05-03T11:14:14.965Z,0.90
2019-05-03T11:16:45.982Z,1.10
2019-05-03T11:19:14.690Z,1.33
2019-05-03T11:21:45.299Z,1.17
2019-05-03T11:24:14.892Z,1.40
2019-05-03T11:26:45.611Z,1.80
2019-05-03T11:29:15.841Z,1.10
2019-05-03T11:31:55.772Z,1.30
2019-05-03T11:34:27.780Z,1.20
2019-05-03T11:37:25.249Z,1.50
2019-05-03T11:39:55.853Z,1.30
2019-05-03T11:42:24.704Z,1.40
2019-05-03T11:44:53.625Z,1.40
2019-05-03T11:47:24.916Z,0.90
2019-05-03T11:49:54.678Z,1.33
2019-05-03T11:52:25.849Z,0.93
2019-05-03T11:54:55.308Z,1.43
2019-05-03T11:57:26.748Z,1.33
2019-05-03T11:59:55.597Z,1.40
2019-05-03T12:02:44.743Z,1.20
2019-05-03T12:05:22.056Z,1.30
2019-05-03T12:07:50.852Z,1.13
2019-05-03T12:10:32.456Z,1.53
2019-05-03T12:12:56.016Z,1.40
2019-05-03T12:15:24.847Z,1.40
2019-05-03T12:17:59.137Z,1.37
2019-05-03T12:20:28.892Z,1.60
2019-05-03T12:22:58.542Z,1.50
2019-05-03T12:25:28.649Z,1.53
2019-05-03T12:27:57.961Z,1.30
2019-05-03T12:30:27.734Z,1.30
2019-05-03T12:32:56.769Z,1.37
2019-05-03T12:35:25.681Z,1.60
2019-05-03T12:37:55.609Z,1.90
2019-05-03T12:40:25.513Z,1.67
2019-05-03T12:42:55.303Z,1.43
2019-05-03T12:45:24.870Z,1.90
2019-05-03T12:47:55.963Z,1.90
2019-05-03T12:50:25.212Z,1.63
2019-05-03T12:52:55.485Z,1.40
2019-05-03T12:55:24.854Z,1.60
2019-05-03T12:57:55.272Z,1.93
2019-05-03T13:00:42.158Z,1.40
2019-05-03T13:03:15.305Z,1.70
2019-05-03T13:05:44.966Z,1.10
2019-05-03T13:08:42.918Z,1.30
2019-05-03T13:11:11.812Z,1.30
2019-05-03T13:13:40.596Z,1.50
2019-05-03T13:16:12.059Z,1.87
2019-05-03T13:18:41.065Z,1.30
2019-05-03T13:21:09.928Z,1.30
2019-05-03T13:23:38.719Z,1.33
2019-05-03T13:26:07.859Z,1.10
2019-05-03T13:28:36.769Z,1.20
2019-05-03T13:31:06.107Z,1.13
2019-05-03T13:33:35.201Z,1.40
2019-05-03T13:36:04.405Z,1.10
2019-05-03T13:38:35.072Z,1.73
2019-05-03T13:41:06.243Z,1.30
2019-05-03T13:43:35.053Z,1.17
2019-05-03T13:46:05.114Z,1.40
2019-05-03T13:48:42.508Z,1.60
2019-05-03T13:51:05.327Z,1.47
2019-05-03T13:53:34.836Z,1.50
2019-05-03T13:56:04.711Z,1.63
2019-05-03T13:58:35.915Z,1.70
2019-05-03T14:01:05.447Z,1.77
2019-05-03T14:03:35.160Z,1.33
2019-05-03T14:06:08.572Z,1.40
2019-05-03T14:08:35.186Z,1.37
2019-05-03T14:11:05.015Z,1.90
2019-05-03T14:13:35.455Z,1.77
2019-05-03T14:16:05.517Z,1.50
2019-05-03T14:18:35.312Z,1.20
2019-05-03T14:21:19.160Z,1.60
2019-05-03T14:24:05.948Z,1.43
2019-05-03T14:26:35.213Z,2.67
2019-05-03T14:29:05.754Z,1.77
2019-05-03T16:49:47.837Z,1.30
2019-05-03T16:52:17.421Z,1.27
2019-05-03T16:54:46.480Z,1.23
2019-05-03T16:57:17.587Z,1.60
2019-05-03T16:59:46.690Z,1.43
2019-05-03T17:02:17.410Z,1.23
2019-05-03T17:04:52.627Z,1.30
2019-05-03T17:07:29.691Z,3.60
2019-05-03T17:10:22.117Z,1.47
2019-05-03T17:12:54.319Z,1.40
2019-05-03T17:15:24.988Z,1.67
2019-05-03T17:17:54.081Z,1.90
2019-05-03T17:20:23.040Z,1.70
2019-05-03T17:22:52.076Z,1.50
2019-05-03T17:25:20.963Z,1.37
2019-05-03T17:27:49.829Z,1.53
2019-05-03T17:30:18.903Z,1.50
2019-05-03T17:32:47.879Z,1.47
2019-05-03T17:35:16.733Z,1.80
2019-05-03T17:37:45.904Z,1.13
2019-05-03T17:40:32.347Z,1.50
2019-05-03T17:43:14.659Z,1.43
2019-05-03T17:45:51.557Z,1.47
2019-05-03T17:48:20.519Z,1.43
2019-05-03T17:50:51.158Z,1.43
2019-05-03T17:53:55.149Z,2.17
2019-05-03T17:56:35.558Z,1.20
2019-05-03T17:59:24.436Z,1.63
2019-05-03T18:02:23.697Z,1.73
2019-05-03T18:05:18.512Z,1.53
2019-05-03T18:08:13.256Z,2.33
2019-05-03T18:10:46.456Z,1.20
2019-05-03T18:13:15.499Z,1.60
2019-05-03T18:15:44.906Z,1.53
2019-05-03T18:18:15.613Z,1.67
2019-05-03T18:20:45.010Z,1.90
2019-05-03T18:23:15.354Z,1.73
2019-05-03T18:25:44.753Z,1.87
2019-05-03T18:28:14.815Z,2.10
2019-05-03T18:30:45.479Z,1.77
2019-05-03T18:33:15.402Z,1.60
2019-05-03T18:35:44.824Z,1.83
2019-05-03T18:38:14.836Z,2.00
2019-05-03T18:40:44.844Z,2.07
2019-05-03T18:43:20.995Z,1.87
2019-05-03T18:46:08.838Z,2.30
2019-05-03T18:48:37.788Z,2.03
2019-05-03T18:51:06.585Z,1.83
2019-05-03T18:53:35.449Z,2.23
2019-05-03T18:56:17.404Z,2.03
2019-05-03T18:58:49.584Z,2.13
2019-05-03T19:01:19.846Z,2.00
2019-05-03T19:03:51.712Z,2.13
2019-05-03T19:06:20.579Z,2.30
2019-05-03T19:09:11.930Z,2.87
2019-05-03T19:12:04.881Z,2.10
2019-05-03T19:14:33.870Z,1.60
2019-05-03T19:17:15.415Z,2.70
2019-05-03T19:19:45.795Z,2.20
2019-05-03T19:22:28.735Z,1.83
2019-05-03T19:25:04.057Z,2.20
2019-05-03T19:27:34.633Z,2.60
2019-05-03T19:30:05.090Z,2.07
2019-05-03T19:32:35.811Z,1.70
2019-05-03T19:35:12.831Z,2.10
2019-05-03T19:37:42.054Z,2.00
2019-05-03T19:40:10.948Z,1.57
2019-05-03T19:42:40.061Z,2.30
2019-05-03T19:45:09.027Z,2.40
2019-05-03T19:47:39.169Z,3.00
2019-05-03T19:50:08.073Z,2.40
2019-05-03T19:53:05.139Z,1.90
2019-05-03T19:55:34.321Z,2.70
2019-05-03T19:58:05.474Z,2.70
2019-05-03T20:00:45.572Z,2.47
2019-05-03T20:03:18.182Z,2.50
2019-05-03T20:05:53.561Z,1.80
2019-05-03T20:08:29.696Z,2.00
2019-05-03T20:11:18.034Z,2.50
2019-05-03T20:13:46.939Z,2.30
2019-05-03T20:16:15.950Z,1.80
2019-05-03T20:18:45.792Z,2.23
2019-05-03T20:21:17.877Z,2.23
2019-05-03T20:24:00.056Z,2.00
2019-05-03T20:26:29.231Z,2.77
2019-05-03T20:28:58.530Z,2.00
2019-05-03T20:31:27.953Z,2.37
2019-05-03T20:33:57.069Z,2.20
2019-05-03T20:36:30.116Z,2.57
2019-05-03T20:38:58.979Z,2.33
2019-05-03T20:41:27.823Z,2.43
2019-05-03T20:44:15.307Z,2.60
2019-05-03T20:46:52.352Z,2.50
2019-05-03T20:49:21.631Z,2.50
2019-05-03T20:51:51.493Z,3.63
2019-05-03T20:54:23.068Z,2.50
2019-05-03T20:56:52.277Z,2.77
2019-05-03T20:59:25.312Z,2.70
2019-05-03T21:01:54.630Z,2.30
2019-05-03T21:04:25.633Z,3.83
2019-05-03T21:06:55.230Z,2.63
2019-05-03T21:09:27.035Z,2.73
2019-05-03T21:11:55.870Z,2.70
2019-05-03T21:14:25.050Z,2.80
2019-05-03T21:17:06.753Z,2.30
2019-05-03T21:19:49.632Z,2.43
2019-05-03T21:22:21.797Z,2.03
2019-05-03T21:24:59.161Z,1.10
2019-05-03T21:27:28.084Z,1.20
2019-05-03T21:29:58.447Z,1.53
2019-05-03T21:32:27.801Z,1.47
2019-05-03T21:34:57.190Z,1.70
2019-05-03T21:37:26.691Z,1.90
2019-05-03T21:39:58.716Z,1.93
2019-05-03T21:42:31.621Z,1.70
2019-05-03T21:45:00.477Z,1.83
2019-05-03T21:47:49.403Z,2.00
2019-05-03T21:50:19.756Z,1.73
2019-05-03T21:52:50.196Z,2.07
2019-05-03T21:55:19.066Z,1.90
2019-05-03T21:57:48.413Z,2.20
2019-05-03T22:00:19.843Z,1.80
2019-05-03T22:02:50.704Z,1.93
2019-05-03T22:05:22.912Z,2.00
2019-05-03T22:07:55.041Z,1.80
2019-05-03T22:10:26.163Z,1.73
2019-05-03T22:12:54.948Z,2.30
2019-05-03T22:15:32.186Z,1.90
2019-05-03T22:18:08.233Z,2.10
2019-05-03T22:20:47.128Z,2.23
2019-05-03T22:23:36.736Z,2.23
2019-05-03T22:26:05.860Z,2.00
2019-05-03T22:28:35.195Z,2.50
2019-05-03T22:31:06.884Z,2.00
2019-05-03T22:33:34.927Z,1.97
2019-05-03T22:36:08.636Z,2.57
2019-05-03T22:38:38.282Z,2.13
2019-05-03T22:41:05.527Z,2.17
2019-05-03T22:43:34.920Z,2.53
2019-05-03T22:46:05.312Z,2.57
2019-05-03T22:48:34.356Z,2.67
2019-05-03T22:51:04.779Z,2.40
2019-05-03T22:53:34.378Z,2.30
2019-05-03T22:56:04.913Z,2.20
2019-05-03T22:58:35.458Z,2.63
2019-05-03T23:01:04.499Z,2.37
2019-05-03T23:03:40.494Z,2.93
2019-05-03T23:06:19.508Z,2.53
2019-05-03T23:08:39.888Z,2.50
2019-05-03T23:11:08.769Z,2.80
2019-05-03T23:13:37.805Z,2.87
2019-05-03T23:16:06.684Z,2.73
2019-05-03T23:18:35.485Z,2.60
2019-05-03T23:21:12.767Z,2.60
2019-05-03T23:23:52.151Z,2.70
2019-05-03T23:26:20.976Z,2.33
2019-05-03T23:28:49.785Z,2.37
2019-05-03T23:31:18.724Z,2.57
2019-05-03T23:33:47.600Z,2.80
2019-05-03T23:36:16.408Z,2.87
2019-05-03T23:38:45.404Z,2.57
2019-05-03T23:41:15.255Z,2.50
2019-05-03T23:43:45.051Z,2.50
2019-05-03T23:46:15.816Z,2.00
2019-05-03T23:48:44.874Z,3.53
2019-05-03T23:51:34.948Z,2.20
2019-05-03T23:54:05.559Z,2.70
2019-05-03T23:56:35.133Z,2.07
2019-05-03T23:59:05.563Z,2.60
